Armada, Michigan
Current Conditions -  °F | °C
As of 6:58 AM on Saturday 01 Nov 2014 (Local Time) from KMTC Reporting Station
Broken Clouds Broken Clouds  
Wind Chill: 21°   Ceiling: 1400
Heat Index: 33°   Visibility: 10mi
Dew Point: 33°   Wind: 18mph
Humidity: 100%   Direction: 350°N
Pressure: 30.19"   Gusts: 25mph
Location:  42.84°N, 82.88°W
Report Text: KMTC 011058Z AUTO 35016G22KT 10SM BKN014 BKN021 00/00 A3019 RMK AO2 PK WND 34027/23 UPB1011E1022RAB1044E1054DZB1034E1044 SLP233 P0000 T00030003
Loading
Personal Weather Stations






























Interactive Weather Map
Tropical Storm Tracking
New forecast layout! Learn more

10-Day Weather Forecast

Advertisements
Track Severe Weather on mobile